Time;durP1;ratioP1;P1;durP2;ratioP2;P2;SDS_P1;SDS_P2;PMS_P1;PMS_P2;Temp;Humidity;BMP_temperature;BMP_pressure;BME280_temperature;BME280_humidity;BME280_pressure;Samples;Min_cycle;Max_cycle;Signal;HPM_P1;HPM_P2
2022/10/14 00:01:34;;;;;;;23.30;16.33;;;10.50;99.90;;;;;;5037107;28;20698;-72
2022/10/14 00:04:00;;;;;;;22.43;14.97;;;10.40;99.90;;;;;;5044322;28;20172;-71
2022/10/14 00:06:30;;;;;;;26.10;16.97;;;10.40;99.90;;;;;;5044315;28;20193;-72
2022/10/14 00:09:00;;;;;;;22.00;16.40;;;10.40;99.90;;;;;;5052623;28;20652;-72
2022/10/14 00:11:28;;;;;;;24.60;14.33;;;10.30;99.90;;;;;;5020212;28;20409;-72
2022/10/14 00:13:57;;;;;;;20.50;15.23;;;10.30;99.90;;;;;;5043787;28;20923;-71
2022/10/14 00:16:28;;;;;;;21.37;16.73;;;10.30;99.90;;;;;;5032543;28;20775;-72
2022/10/14 00:18:53;;;;;;;22.87;16.40;;;10.30;99.90;;;;;;5043029;28;20499;-72
2022/10/14 00:21:19;;;;;;;21.93;16.20;;;10.30;99.90;;;;;;5033178;28;20509;-72
2022/10/14 00:23:45;;;;;;;25.53;18.60;;;10.30;99.90;;;;;;5039975;22;20247;-69
2022/10/14 00:26:22;;;;;;;24.07;17.23;;;10.30;99.90;;;;;;5016017;28;20204;-70
2022/10/14 00:28:48;;;;;;;26.20;18.77;;;10.20;99.90;;;;;;5015478;28;20551;-69
2022/10/14 00:31:14;;;;;;;20.07;16.80;;;10.30;99.90;;;;;;5016186;28;20877;-69
2022/10/14 00:33:40;;;;;;;23.70;15.57;;;10.20;99.90;;;;;;5028152;28;20441;-69
2022/10/14 00:36:06;;;;;;;27.13;18.03;;;10.10;99.90;;;;;;5020975;28;20501;-69
2022/10/14 00:38:33;;;;;;;23.83;17.60;;;10.10;99.90;;;;;;5025828;28;20168;-69
2022/10/14 00:40:59;;;;;;;23.80;16.77;;;10.10;99.90;;;;;;5032537;28;20421;-69
2022/10/14 00:43:26;;;;;;;26.37;17.73;;;10.00;99.90;;;;;;5032323;28;20437;-69
2022/10/14 00:45:52;;;;;;;25.37;17.27;;;10.00;99.90;;;;;;5027819;28;20545;-69
2022/10/14 00:48:20;;;;;;;27.43;16.37;;;10.00;99.90;;;;;;5023601;28;20410;-69
2022/10/14 00:50:48;;;;;;;29.43;17.73;;;10.00;99.90;;;;;;5021363;28;20168;-69
2022/10/14 00:53:14;;;;;;;28.33;17.63;;;10.00;99.90;;;;;;5019521;28;20434;-69
2022/10/14 00:55:41;;;;;;;25.63;16.97;;;10.00;99.90;;;;;;5030900;28;20410;-69
2022/10/14 00:58:08;;;;;;;22.90;16.47;;;10.00;99.90;;;;;;5019693;28;20468;-69
2022/10/14 01:00:34;;;;;;;26.13;17.20;;;9.90;99.90;;;;;;5025331;28;20822;-69
2022/10/14 01:02:59;;;;;;;21.57;15.80;;;9.90;99.90;;;;;;5031526;28;20903;-69
2022/10/14 01:05:30;;;;;;;24.13;16.93;;;9.90;99.90;;;;;;5031633;28;20410;-69
2022/10/14 01:08:15;;;;;;;20.90;15.77;;;9.90;99.90;;;;;;5031096;28;20253;-70
2022/10/14 01:11:00;;;;;;;23.40;14.90;;;9.90;99.90;;;;;;5027429;28;20463;-69
2022/10/14 01:13:41;;;;;;;20.57;15.90;;;9.90;99.90;;;;;;5000669;28;20420;-69
2022/10/14 01:16:50;;;;;;;28.83;15.90;;;9.90;99.90;;;;;;5031730;28;20918;-69
2022/10/14 01:19:59;;;;;;;27.80;17.20;;;9.90;99.90;;;;;;5027325;28;20508;-69
2022/10/14 01:23:16;;;;;;;21.10;15.47;;;9.80;99.90;;;;;;5032277;28;20420;-69
2022/10/14 01:25:59;;;;;;;24.17;16.43;;;9.80;99.90;;;;;;4998782;28;20421;-69
2022/10/14 01:28:58;;;;;;;22.93;15.67;;;9.80;99.90;;;;;;5020471;28;20446;-69
2022/10/14 01:31:31;;;;;;;23.87;15.60;;;9.80;99.90;;;;;;5018522;28;20887;-68
2022/10/14 01:34:01;;;;;;;19.70;13.73;;;9.70;99.90;;;;;;5025268;28;20510;-69
2022/10/14 01:36:36;;;;;;;22.77;15.57;;;9.70;99.90;;;;;;5026819;28;20409;-69
2022/10/14 01:39:13;;;;;;;22.20;14.73;;;9.70;99.90;;;;;;5032026;28;20396;-69
2022/10/14 01:41:44;;;;;;;26.47;14.23;;;9.60;99.90;;;;;;5032532;28;20422;-68
2022/10/14 01:44:13;;;;;;;19.30;13.27;;;9.60;99.90;;;;;;5031378;28;20434;-69
2022/10/14 01:46:41;;;;;;;19.50;13.37;;;9.60;99.90;;;;;;5017053;28;20482;-69
2022/10/14 01:49:10;;;;;;;20.40;13.53;;;9.60;99.90;;;;;;4999903;28;20471;-69
2022/10/14 01:51:47;;;;;;;22.20;13.93;;;9.60;99.90;;;;;;5032533;28;20418;-69
2022/10/14 01:54:17;;;;;;;24.60;14.87;;;9.60;99.90;;;;;;5032454;28;20430;-69
2022/10/14 01:56:45;;;;;;;21.50;14.90;;;9.50;99.90;;;;;;5031160;28;20432;-69
2022/10/14 01:59:15;;;;;;;20.37;14.00;;;9.50;99.90;;;;;;5011866;28;20474;-69
2022/10/14 02:01:40;;;;;;;27.60;15.57;;;9.50;99.90;;;;;;5019712;28;20438;-69
2022/10/14 02:04:18;;;;;;;22.30;14.10;;;9.40;99.90;;;;;;5024127;28;20439;-69
2022/10/14 02:07:03;;;;;;;25.20;14.30;;;9.40;99.90;;;;;;5028586;28;20661;-68
2022/10/14 02:09:46;;;;;;;17.70;12.77;;;9.30;99.90;;;;;;5031096;28;20441;-69
2022/10/14 02:12:15;;;;;;;20.93;14.97;;;9.40;99.90;;;;;;5031088;28;20443;-69
2022/10/14 02:15:01;;;;;;;22.63;15.23;;;9.40;99.90;;;;;;5030672;28;20454;-69
2022/10/14 02:17:42;;;;;;;16.90;13.37;;;9.40;99.90;;;;;;5022504;28;20441;-69
2022/10/14 02:20:24;;;;;;;22.80;14.93;;;9.40;99.90;;;;;;5034731;28;20421;-69
2022/10/14 02:23:07;;;;;;;21.53;13.90;;;9.40;99.90;;;;;;5034756;28;20453;-69
2022/10/14 02:25:40;;;;;;;20.43;14.07;;;9.30;99.90;;;;;;5034883;28;20751;-69
2022/10/14 02:28:07;;;;;;;21.93;15.03;;;9.30;99.90;;;;;;5025096;28;20449;-69
2022/10/14 02:30:40;;;;;;;25.97;15.73;;;9.40;99.90;;;;;;5018468;28;20444;-70
2022/10/14 02:33:07;;;;;;;21.80;13.00;;;9.40;99.90;;;;;;5004154;28;20410;-70
2022/10/14 02:35:34;;;;;;;19.83;16.17;;;9.40;99.90;;;;;;5023522;28;20405;-69
2022/10/14 02:38:01;;;;;;;19.20;14.53;;;9.40;99.90;;;;;;5036551;28;20417;-70
2022/10/14 02:40:38;;;;;;;21.87;13.70;;;9.50;99.90;;;;;;5033459;28;20420;-69
2022/10/14 02:43:06;;;;;;;24.70;14.83;;;9.40;99.90;;;;;;5034361;28;20455;-70
2022/10/14 02:45:33;;;;;;;21.37;15.63;;;9.50;99.90;;;;;;5029061;28;20437;-69
2022/10/14 02:47:58;;;;;;;21.47;15.83;;;9.50;99.90;;;;;;5025331;28;20509;-68
2022/10/14 02:50:24;;;;;;;26.00;15.20;;;9.50;99.90;;;;;;5034257;28;20498;-69
2022/10/14 02:52:49;;;;;;;29.40;16.17;;;9.50;99.90;;;;;;5034569;28;20168;-69
2022/10/14 02:55:15;;;;;;;24.93;15.43;;;9.60;99.90;;;;;;5035723;28;20174;-68
2022/10/14 02:57:40;;;;;;;18.83;14.30;;;9.50;99.90;;;;;;5027935;28;20179;-68
2022/10/14 03:00:07;;;;;;;22.70;16.30;;;9.50;99.90;;;;;;5015817;28;20240;-68
2022/10/14 03:02:32;;;;;;;18.03;13.70;;;9.50;99.90;;;;;;5030280;28;20171;-69
2022/10/14 03:04:58;;;;;;;20.47;13.73;;;9.60;99.90;;;;;;5023796;28;20441;-69
2022/10/14 03:07:24;;;;;;;22.97;13.50;;;9.60;99.90;;;;;;5033962;28;20222;-69
2022/10/14 03:09:49;;;;;;;17.53;10.90;;;9.60;99.90;;;;;;5033914;28;20178;-69
2022/10/14 03:12:15;;;;;;;22.67;13.77;;;9.60;99.90;;;;;;5034023;28;20501;-70
2022/10/14 03:14:41;;;;;;;21.60;12.63;;;9.60;99.90;;;;;;5033631;28;20654;-69
2022/10/14 03:17:07;;;;;;;17.97;12.30;;;9.60;99.90;;;;;;5024631;28;20179;-68
2022/10/14 03:19:33;;;;;;;14.53;12.20;;;9.60;99.90;;;;;;5033755;28;20168;-69
2022/10/14 03:21:58;;;;;;;15.33;13.00;;;9.60;99.90;;;;;;5033752;28;20911;-69
2022/10/14 03:24:24;;;;;;;20.27;12.77;;;9.70;99.90;;;;;;5033631;28;20484;-69
2022/10/14 03:26:49;;;;;;;18.07;12.03;;;9.70;99.90;;;;;;5033536;28;20195;-69
2022/10/14 03:29:15;;;;;;;16.47;12.80;;;9.80;99.90;;;;;;5018482;28;20163;-68
2022/10/14 03:31:40;;;;;;;14.83;11.20;;;9.70;99.90;;;;;;5022395;28;20172;-69
2022/10/14 03:34:06;;;;;;;15.97;11.40;;;9.80;99.90;;;;;;5025881;28;20564;-69
2022/10/14 03:36:31;;;;;;;16.67;12.60;;;9.80;99.90;;;;;;5029432;28;20219;-69
2022/10/14 03:38:57;;;;;;;22.00;12.93;;;9.90;99.90;;;;;;5033541;28;20209;-69
2022/10/14 03:41:23;;;;;;;18.73;12.97;;;9.90;99.90;;;;;;5027280;28;20171;-69
2022/10/14 03:43:48;;;;;;;23.13;14.40;;;9.90;99.90;;;;;;5033379;28;20250;-69
2022/10/14 03:46:14;;;;;;;16.03;12.87;;;9.90;99.90;;;;;;5025977;28;20199;-69
2022/10/14 03:48:39;;;;;;;17.50;10.80;;;9.90;99.90;;;;;;5030247;28;20576;-69
2022/10/14 03:51:05;;;;;;;18.33;13.07;;;9.90;99.90;;;;;;5033600;28;20646;-69
2022/10/14 03:53:30;;;;;;;21.60;10.97;;;9.80;99.90;;;;;;5033512;28;20194;-69
2022/10/14 03:55:56;;;;;;;17.07;13.73;;;9.90;99.90;;;;;;5032784;28;20583;-69
2022/10/14 03:58:21;;;;;;;17.47;13.40;;;9.80;99.90;;;;;;5014192;28;20243;-69
2022/10/14 04:00:47;;;;;;;18.60;12.27;;;9.80;99.90;;;;;;5014495;28;20181;-69
2022/10/14 04:03:12;;;;;;;21.07;12.50;;;9.80;99.90;;;;;;5033334;28;20334;-69
2022/10/14 04:05:38;;;;;;;18.00;12.63;;;9.80;99.90;;;;;;5033222;28;20231;-69
2022/10/14 04:08:04;;;;;;;14.83;11.33;;;9.70;99.90;;;;;;5034853;28;20221;-69
2022/10/14 04:10:30;;;;;;;20.57;13.20;;;9.70;99.90;;;;;;5032608;28;20176;-69
2022/10/14 04:12:56;;;;;;;22.47;13.13;;;9.60;99.90;;;;;;5032974;28;20168;-69
2022/10/14 04:15:21;;;;;;;23.43;13.10;;;9.60;99.90;;;;;;5033102;28;20405;-69
2022/10/14 04:17:48;;;;;;;18.47;13.83;;;9.60;99.90;;;;;;5024873;28;20758;-69
2022/10/14 04:20:14;;;;;;;24.50;13.90;;;9.60;99.90;;;;;;5026309;28;20178;-69
2022/10/14 04:22:39;;;;;;;17.97;12.53;;;9.50;99.90;;;;;;5033055;28;20406;-69
2022/10/14 04:25:06;;;;;;;19.33;11.77;;;9.50;99.90;;;;;;5032368;28;20465;-69
2022/10/14 04:27:31;;;;;;;20.63;12.80;;;9.50;99.90;;;;;;5029510;28;20218;-69
2022/10/14 04:29:57;;;;;;;19.73;13.47;;;9.40;99.90;;;;;;5017734;28;20842;-69
2022/10/14 04:32:22;;;;;;;25.60;13.67;;;9.40;99.90;;;;;;5027202;28;20174;-68
2022/10/14 04:34:48;;;;;;;16.70;12.30;;;9.30;99.90;;;;;;5020840;28;20192;-69
2022/10/14 04:37:14;;;;;;;21.00;13.40;;;9.30;99.90;;;;;;5032905;28;20262;-69
2022/10/14 04:39:39;;;;;;;16.03;12.83;;;9.30;99.90;;;;;;5033255;28;20216;-69
2022/10/14 04:42:04;;;;;;;22.90;13.93;;;9.30;99.90;;;;;;5035100;28;20306;-69
2022/10/14 04:44:30;;;;;;;19.30;12.20;;;9.30;99.90;;;;;;5032289;28;20673;-69
2022/10/14 04:46:55;;;;;;;22.33;13.97;;;9.30;99.90;;;;;;5021367;28;20198;-69
2022/10/14 04:49:21;;;;;;;20.77;14.10;;;9.30;99.90;;;;;;5035935;28;20166;-70
2022/10/14 04:51:47;;;;;;;18.90;12.37;;;9.30;99.90;;;;;;5035965;28;20547;-70
2022/10/14 04:54:13;;;;;;;17.10;12.00;;;9.30;99.90;;;;;;5035827;28;20195;-70
2022/10/14 04:56:38;;;;;;;19.40;13.97;;;9.30;99.90;;;;;;5028949;28;20254;-70
2022/10/14 04:59:04;;;;;;;24.23;13.80;;;9.40;99.90;;;;;;5017828;28;20421;-70
2022/10/14 05:01:30;;;;;;;19.77;14.23;;;9.40;99.90;;;;;;5021643;28;20225;-70
2022/10/14 05:03:55;;;;;;;19.90;13.00;;;9.40;99.90;;;;;;5028272;28;20222;-70
2022/10/14 05:06:21;;;;;;;22.63;12.70;;;9.40;99.90;;;;;;5027189;28;20193;-70
2022/10/14 05:08:46;;;;;;;19.00;13.40;;;9.50;99.90;;;;;;5031967;28;20179;-70
2022/10/14 05:11:12;;;;;;;17.03;13.73;;;9.50;99.90;;;;;;5012645;28;20182;-67
2022/10/14 05:13:38;;;;;;;23.80;13.20;;;9.60;99.90;;;;;;5015839;28;20219;-69
2022/10/14 05:16:04;;;;;;;23.83;13.73;;;9.60;99.90;;;;;;5018683;28;20175;-68
2022/10/14 05:18:29;;;;;;;20.53;14.37;;;9.70;99.90;;;;;;5013865;28;20668;-68
2022/10/14 05:20:58;;;;;;;20.13;12.67;;;9.70;99.90;;;;;;5022880;28;20498;-69
2022/10/14 05:23:24;;;;;;;24.90;14.07;;;9.70;99.90;;;;;;5021506;28;20286;-69
2022/10/14 05:25:50;;;;;;;24.23;13.50;;;9.80;99.90;;;;;;5017033;28;20490;-69
2022/10/14 05:28:16;;;;;;;27.90;15.70;;;9.80;99.90;;;;;;5013347;28;20534;-69
2022/10/14 05:30:42;;;;;;;18.03;12.63;;;9.80;99.90;;;;;;5022016;28;20494;-69
2022/10/14 05:33:08;;;;;;;18.40;12.40;;;9.80;99.90;;;;;;5033619;28;20439;-69
2022/10/14 05:35:33;;;;;;;21.27;13.40;;;9.90;99.90;;;;;;5022561;28;20267;-69
2022/10/14 05:37:59;;;;;;;18.43;11.50;;;10.00;99.90;;;;;;5033003;28;20656;-69
2022/10/14 05:40:24;;;;;;;21.90;12.27;;;10.00;99.90;;;;;;5033181;28;20673;-69
2022/10/14 05:42:50;;;;;;;20.37;13.77;;;10.00;99.90;;;;;;5033025;28;20206;-69
2022/10/14 05:45:16;;;;;;;18.07;12.77;;;10.00;99.90;;;;;;5018772;28;20175;-69
2022/10/14 05:47:45;;;;;;;19.80;12.50;;;10.10;99.90;;;;;;5022840;28;20254;-69
2022/10/14 05:50:11;;;;;;;20.40;14.37;;;10.10;99.90;;;;;;5032256;28;20545;-69
2022/10/14 05:52:39;;;;;;;18.43;12.00;;;10.10;99.90;;;;;;5035551;28;20422;-70
2022/10/14 05:55:06;;;;;;;18.63;13.13;;;10.20;99.90;;;;;;5014542;28;20434;-70
2022/10/14 05:57:32;;;;;;;15.60;11.47;;;10.30;99.90;;;;;;5026929;28;20427;-70
2022/10/14 05:59:58;;;;;;;17.20;12.93;;;10.30;99.90;;;;;;5017918;28;20429;-70
2022/10/14 06:02:24;;;;;;;14.60;12.17;;;10.30;99.90;;;;;;5016269;28;20893;-70
2022/10/14 06:04:50;;;;;;;18.40;12.37;;;10.40;99.90;;;;;;5017612;28;20453;-70
2022/10/14 06:07:15;;;;;;;14.70;11.50;;;10.50;99.90;;;;;;5036407;28;20449;-70
2022/10/14 06:09:41;;;;;;;20.70;11.67;;;10.50;99.90;;;;;;5034745;28;20180;-74
2022/10/14 06:12:07;;;;;;;21.23;13.60;;;10.60;99.90;;;;;;5034950;28;20214;-70
2022/10/14 06:14:32;;;;;;;19.30;13.73;;;10.60;99.90;;;;;;5035438;28;20216;-70
2022/10/14 06:16:58;;;;;;;23.10;13.63;;;10.60;99.90;;;;;;5028835;28;20176;-71
2022/10/14 06:19:23;;;;;;;20.33;13.83;;;10.70;99.90;;;;;;5020242;28;20611;-70
2022/10/14 06:21:49;;;;;;;18.40;13.40;;;10.70;99.90;;;;;;5035895;28;20168;-70
2022/10/14 06:24:15;;;;;;;21.97;12.40;;;10.70;99.90;;;;;;5030127;28;20207;-70
2022/10/14 06:26:40;;;;;;;17.87;13.23;;;10.70;99.90;;;;;;5035125;28;20221;-70
2022/10/14 06:29:06;;;;;;;16.17;11.90;;;10.80;99.90;;;;;;5022728;28;20197;-70
2022/10/14 06:31:32;;;;;;;20.40;12.37;;;10.90;99.90;;;;;;5023126;28;20187;-71
2022/10/14 06:33:57;;;;;;;24.50;12.00;;;10.90;99.90;;;;;;5029862;28;20665;-70
2022/10/14 06:36:23;;;;;;;16.20;11.17;;;11.00;99.90;;;;;;5032337;28;20179;-69
2022/10/14 06:38:48;;;;;;;15.57;11.77;;;11.00;99.90;;;;;;5035855;28;20725;-70
2022/10/14 06:41:14;;;;;;;17.93;11.23;;;11.00;99.90;;;;;;5021785;28;20172;-71
2022/10/14 06:43:39;;;;;;;21.50;12.00;;;11.00;99.90;;;;;;5035755;28;20215;-69
2022/10/14 06:46:05;;;;;;;16.53;11.80;;;11.10;99.90;;;;;;5026700;28;20214;-69
2022/10/14 06:48:30;;;;;;;19.73;13.30;;;11.20;99.90;;;;;;5031243;28;20634;-69
2022/10/14 06:51:00;;;;;;;22.70;13.47;;;11.20;99.90;;;;;;5035814;28;20587;-70
2022/10/14 06:53:27;;;;;;;17.07;11.90;;;11.20;99.90;;;;;;5034056;28;20190;-70
2022/10/14 06:56:00;;;;;;;21.87;11.47;;;11.30;99.90;;;;;;5034717;28;20763;-69
2022/10/14 06:58:26;;;;;;;18.23;10.80;;;11.30;99.90;;;;;;5017711;28;20442;-71
2022/10/14 07:00:52;;;;;;;16.23;11.87;;;11.40;99.90;;;;;;5020450;28;20403;-70
2022/10/14 07:03:17;;;;;;;16.23;12.00;;;11.40;99.90;;;;;;5028282;28;20742;-70
2022/10/14 07:05:43;;;;;;;22.33;11.10;;;11.40;99.90;;;;;;5037005;28;20294;-70
2022/10/14 07:08:08;;;;;;;17.03;11.60;;;11.50;99.90;;;;;;5036643;28;20266;-70
2022/10/14 07:10:34;;;;;;;20.07;11.43;;;11.50;99.90;;;;;;5036350;28;20167;-70
2022/10/14 07:12:59;;;;;;;16.80;10.97;;;11.50;99.90;;;;;;5036237;28;20206;-70
2022/10/14 07:15:25;;;;;;;18.63;11.37;;;11.60;99.90;;;;;;5035729;28;20168;-70
2022/10/14 07:17:50;;;;;;;22.17;10.67;;;11.60;99.90;;;;;;5029490;28;20642;-70
2022/10/14 07:20:16;;;;;;;17.80;11.80;;;11.70;99.90;;;;;;5029267;28;20183;-69
2022/10/14 07:22:41;;;;;;;18.97;12.20;;;11.70;99.90;;;;;;5034648;28;20334;-69
2022/10/14 07:25:07;;;;;;;18.57;11.93;;;11.80;99.90;;;;;;5033809;28;20212;-69
2022/10/14 07:27:33;;;;;;;14.07;10.27;;;11.90;99.90;;;;;;5031150;28;20269;-70
2022/10/14 07:30:00;;;;;;;12.13;9.73;;;11.90;99.90;;;;;;5019856;28;20410;-70
2022/10/14 07:32:26;;;;;;;17.17;9.37;;;11.90;99.90;;;;;;5021056;28;20765;-70
2022/10/14 07:34:52;;;;;;;14.83;11.10;;;12.00;99.90;;;;;;5016724;28;20427;-69
2022/10/14 07:37:17;;;;;;;18.83;11.77;;;12.30;99.90;;;;;;5019467;28;20415;-69
2022/10/14 07:39:43;;;;;;;15.67;12.10;;;12.30;99.90;;;;;;5030162;28;20188;-69
2022/10/14 07:42:08;;;;;;;15.20;9.47;;;12.50;99.90;;;;;;5033078;28;20171;-69
2022/10/14 07:44:36;;;;;;;14.27;10.17;;;12.40;99.90;;;;;;5020341;28;20200;-69
2022/10/14 07:47:02;;;;;;;14.10;10.97;;;12.40;99.90;;;;;;5021005;28;20202;-69
2022/10/14 07:49:28;;;;;;;13.30;9.67;;;12.50;99.90;;;;;;5032069;28;20839;-69
2022/10/14 07:51:53;;;;;;;13.90;9.83;;;12.60;99.90;;;;;;5024769;28;20434;-69
2022/10/14 07:54:21;;;;;;;14.53;10.47;;;12.70;99.90;;;;;;5034057;28;20434;-70
2022/10/14 07:56:48;;;;;;;14.73;11.17;;;12.60;99.90;;;;;;5028463;28;20196;-69
2022/10/14 07:59:14;;;;;;;16.03;11.13;;;12.70;99.90;;;;;;5015985;28;20493;-68
2022/10/14 08:01:41;;;;;;;14.20;10.40;;;12.60;99.90;;;;;;5020524;28;20409;-70
2022/10/14 08:04:07;;;;;;;12.93;10.47;;;12.70;99.90;;;;;;5024043;28;20907;-69
2022/10/14 08:06:33;;;;;;;14.80;9.37;;;12.70;99.90;;;;;;5027824;28;20545;-69
2022/10/14 08:08:58;;;;;;;11.20;9.00;;;13.00;99.90;;;;;;5032664;28;20634;-70
2022/10/14 08:11:25;;;;;;;16.60;12.17;;;13.40;99.90;;;;;;5031507;28;20167;-70
2022/10/14 08:13:52;;;;;;;11.83;9.43;;;13.30;99.90;;;;;;5032975;28;20192;-70
2022/10/14 08:16:20;;;;;;;15.57;9.90;;;13.20;99.90;;;;;;5029322;28;20779;-68
2022/10/14 08:18:46;;;;;;;12.53;9.30;;;13.40;99.90;;;;;;5029661;28;20417;-69
2022/10/14 08:21:12;;;;;;;12.97;9.47;;;13.50;99.90;;;;;;5036341;28;20431;-70
2022/10/14 08:23:38;;;;;;;13.73;9.27;;;13.50;99.90;;;;;;5030213;28;20836;-70
2022/10/14 08:26:04;;;;;;;18.30;10.97;;;13.60;99.90;;;;;;5015619;28;20436;-70
2022/10/14 08:28:29;;;;;;;12.03;9.33;;;13.80;99.90;;;;;;5013500;28;20168;-70
2022/10/14 08:30:55;;;;;;;12.27;7.83;;;14.00;99.90;;;;;;5018999;28;20638;-70
2022/10/14 08:33:21;;;;;;;14.60;10.33;;;14.20;99.90;;;;;;5020201;28;20201;-70
2022/10/14 08:35:46;;;;;;;12.30;10.27;;;14.40;99.90;;;;;;5021711;28;20229;-69
2022/10/14 08:38:11;;;;;;;9.90;8.40;;;14.80;99.90;;;;;;5022260;28;20310;-71
2022/10/14 08:41:08;;;;;;;13.30;9.03;;;15.60;99.90;;;;;;5015865;28;20174;-71
2022/10/14 08:43:48;;;;;;;13.03;8.43;;;16.40;99.90;;;;;;5020960;28;20209;-70
2022/10/14 08:46:30;;;;;;;9.97;7.93;;;17.40;99.90;;;;;;5017088;28;20929;-70
2022/10/14 08:49:08;;;;;;;10.90;8.77;;;18.10;99.90;;;;;;5013176;28;20442;-70
2022/10/14 08:51:34;;;;;;;11.27;9.27;;;18.20;99.90;;;;;;5014884;28;20432;-70
2022/10/14 08:54:07;;;;;;;10.10;8.77;;;18.40;99.90;;;;;;5004146;28;20768;-69
2022/10/14 08:56:35;;;;;;;12.20;9.70;;;18.70;99.90;;;;;;5032406;28;20420;-70
2022/10/14 08:59:06;;;;;;;12.90;8.93;;;18.70;99.90;;;;;;5032944;28;20499;-70
2022/10/14 09:01:34;;;;;;;9.37;7.50;;;19.10;99.90;;;;;;5027199;28;20906;-70
2022/10/14 09:04:11;;;;;;;11.77;9.40;;;19.00;99.90;;;;;;4999416;28;20548;-72
2022/10/14 09:06:40;;;;;;;8.27;7.37;;;18.70;99.90;;;;;;5027367;28;20472;-70
2022/10/14 09:09:10;;;;;;;12.20;8.67;;;18.00;99.90;;;;;;5016890;28;20445;-69
2022/10/14 09:11:40;;;;;;;10.17;8.90;;;17.50;99.90;;;;;;5029407;28;20400;-69
2022/10/14 09:14:08;;;;;;;9.53;8.10;;;17.60;99.90;;;;;;5031708;28;20438;-75
2022/10/14 09:16:37;;;;;;;11.60;9.20;;;17.60;99.90;;;;;;5034131;28;20453;-70
2022/10/14 09:19:07;;;;;;;12.30;8.83;;;17.90;99.90;;;;;;5021320;28;20785;-70
2022/10/14 09:21:35;;;;;;;10.57;8.20;;;17.90;99.90;;;;;;5032583;28;20439;-70
2022/10/14 09:24:16;;;;;;;11.57;8.93;;;17.70;99.90;;;;;;5001930;28;20473;-69
2022/10/14 09:26:45;;;;;;;11.70;9.83;;;18.00;99.90;;;;;;5020212;28;20454;-69
2022/10/14 09:29:25;;;;;;;12.00;9.30;;;17.50;99.90;;;;;;5023585;28;20998;-70
2022/10/14 09:31:54;;;;;;;13.03;9.03;;;17.60;99.90;;;;;;5021860;28;20496;-70
2022/10/14 09:34:33;;;;;;;10.43;8.20;;;17.50;99.90;;;;;;5020808;28;20448;-72
2022/10/14 09:37:30;;;;;;;10.07;8.50;;;17.30;99.90;;;;;;5018385;28;20897;-68
2022/10/14 09:40:09;;;;;;;11.83;9.20;;;17.60;99.90;;;;;;5012087;28;20501;-70
2022/10/14 09:42:56;;;;;;;13.07;8.90;;;18.10;99.90;;;;;;5019930;28;20433;-71
2022/10/14 09:45:24;;;;;;;11.33;8.80;;;17.90;99.90;;;;;;5010687;28;20428;-70
2022/10/14 09:48:02;;;;;;;10.43;8.37;;;17.60;99.90;;;;;;5023757;28;20462;-69
2022/10/14 09:50:38;;;;;;;10.17;8.43;;;17.50;99.90;;;;;;5035857;28;20412;-70
2022/10/14 09:53:13;;;;;;;11.57;9.37;;;17.20;99.90;;;;;;5015655;28;20458;-70
2022/10/14 09:55:52;;;;;;;16.73;8.90;;;17.30;99.90;;;;;;5018255;28;20507;-71
2022/10/14 09:58:42;;;;;;;8.27;7.00;;;17.30;99.90;;;;;;5032876;28;20432;-69
2022/10/14 10:01:18;;;;;;;11.97;8.77;;;17.10;99.90;;;;;;5030467;28;20432;-70
2022/10/14 10:03:44;;;;;;;16.37;8.87;;;16.80;99.90;;;;;;5032848;28;20466;-70
2022/10/14 10:06:14;;;;;;;11.63;9.60;;;16.70;99.90;;;;;;5020382;28;20410;-70
2022/10/14 10:08:54;;;;;;;17.07;10.87;;;16.80;99.90;;;;;;5031273;28;20523;-69
2022/10/14 10:11:36;;;;;;;12.10;9.50;;;16.90;99.90;;;;;;5029320;28;20396;-68
2022/10/14 10:14:28;;;;;;;12.40;9.27;;;16.80;99.90;;;;;;5009611;28;20438;-68
2022/10/14 10:17:08;;;;;;;11.23;10.07;;;16.90;99.90;;;;;;5018203;28;20427;-69
2022/10/14 10:19:43;;;;;;;12.63;9.37;;;16.60;99.90;;;;;;5016584;28;20410;-69
2022/10/14 10:22:22;;;;;;;11.17;9.70;;;16.70;99.90;;;;;;5018937;28;20409;-68
2022/10/14 10:24:51;;;;;;;14.20;9.50;;;16.90;99.90;;;;;;5024626;28;20452;-69
2022/10/14 10:27:37;;;;;;;17.03;10.23;;;16.80;99.90;;;;;;5035071;28;20513;-70
2022/10/14 10:30:19;;;;;;;15.17;8.97;;;16.90;99.90;;;;;;5017257;28;20411;-69
2022/10/14 10:32:59;;;;;;;15.70;10.90;;;17.00;99.90;;;;;;5023991;28;20903;-68
2022/10/14 10:35:28;;;;;;;11.57;8.70;;;17.20;99.90;;;;;;5016485;28;20434;-69
2022/10/14 10:38:21;;;;;;;12.80;9.27;;;17.40;99.90;;;;;;5033943;28;20422;-70
2022/10/14 10:41:14;;;;;;;13.57;10.07;;;17.30;99.90;;;;;;5016895;28;20496;-69
2022/10/14 10:44:01;;;;;;;11.57;9.93;;;17.40;99.90;;;;;;4995711;28;20968;-70
2022/10/14 10:47:08;;;;;;;14.83;9.80;;;17.50;99.90;;;;;;5008482;28;20458;-69
2022/10/14 10:50:03;;;;;;;11.00;8.80;;;17.40;99.90;;;;;;5016043;28;20492;-69
2022/10/14 10:53:08;;;;;;;19.83;10.10;;;17.30;99.90;;;;;;5025411;28;20428;-69
2022/10/14 10:55:53;;;;;;;11.00;9.10;;;17.20;99.90;;;;;;5004138;28;20412;-70
2022/10/14 10:58:41;;;;;;;11.30;8.57;;;17.10;99.90;;;;;;5022273;28;20415;-69
2022/10/14 11:01:17;;;;;;;15.00;10.77;;;17.10;99.90;;;;;;5034369;28;20415;-69
2022/10/14 11:03:52;;;;;;;12.10;9.63;;;17.10;99.90;;;;;;5034665;28;20435;-69
2022/10/14 11:13:10;;;;;;;9.83;8.63;;;17.10;99.90;;;;;;5019199;28;20419;-70
2022/10/14 11:15:57;;;;;;;10.27;9.23;;;17.10;99.90;;;;;;4995233;28;20473;-69
2022/10/14 11:18:33;;;;;;;10.13;8.70;;;17.10;99.90;;;;;;5023098;28;20484;-70
2022/10/14 11:21:02;;;;;;;11.60;8.20;;;17.20;99.90;;;;;;5028760;28;20766;-70
2022/10/14 11:23:42;;;;;;;10.07;7.70;;;17.20;99.90;;;;;;5017085;28;20855;-69
2022/10/14 11:26:29;;;;;;;11.10;9.00;;;17.30;99.90;;;;;;5026405;28;20458;-70
2022/10/14 11:29:28;;;;;;;10.57;8.50;;;17.30;99.90;;;;;;5029021;28;20411;-70
2022/10/14 11:32:08;;;;;;;10.87;8.17;;;17.10;99.90;;;;;;5008335;28;20403;-69
2022/10/14 11:34:57;;;;;;;11.77;7.87;;;17.20;99.90;;;;;;5033046;28;20427;-68
2022/10/14 11:37:33;;;;;;;14.67;8.10;;;17.30;99.90;;;;;;5033911;28;20434;-69
2022/10/14 11:40:12;;;;;;;12.90;9.37;;;17.50;99.90;;;;;;5034998;28;20417;-69
2022/10/14 11:42:55;;;;;;;11.27;8.77;;;17.70;99.90;;;;;;5036313;28;20443;-70
2022/10/14 11:45:40;;;;;;;12.33;7.77;;;18.00;99.90;;;;;;5034561;28;20428;-70
2022/10/14 11:48:18;;;;;;;9.23;7.97;;;18.20;99.90;;;;;;5024402;28;20989;-70
2022/10/14 11:50:47;;;;;;;16.77;10.00;;;17.90;99.90;;;;;;5029341;28;20429;-70
2022/10/14 11:53:38;;;;;;;11.40;9.10;;;17.50;99.90;;;;;;5021611;28;20944;-68
2022/10/14 11:56:23;;;;;;;11.70;8.30;;;17.60;99.90;;;;;;5024277;28;20439;-69
2022/10/14 11:58:50;;;;;;;11.50;8.90;;;18.00;99.90;;;;;;5016341;28;20413;-69
2022/10/14 12:01:19;;;;;;;13.73;7.80;;;17.90;99.90;;;;;;5032751;28;20421;-68
2022/10/14 12:04:14;;;;;;;8.73;7.80;;;18.00;99.90;;;;;;5032153;28;20440;-68
2022/10/14 12:06:45;;;;;;;9.83;7.57;;;17.90;99.90;;;;;;5031749;28;20455;-68
2022/10/14 12:09:19;;;;;;;12.43;7.03;;;17.70;99.90;;;;;;5026259;28;20820;-67
2022/10/14 12:12:06;;;;;;;7.93;6.90;;;17.80;99.90;;;;;;5023534;28;20408;-69
2022/10/14 12:14:48;;;;;;;8.40;7.23;;;17.80;99.90;;;;;;5012049;28;20426;-68
2022/10/14 12:17:29;;;;;;;8.80;6.80;;;17.70;99.90;;;;;;5014746;28;20406;-68
2022/10/14 12:19:55;;;;;;;9.03;6.70;;;17.60;99.90;;;;;;5014324;28;20890;-68
2022/10/14 12:22:24;;;;;;;9.10;6.90;;;17.60;99.90;;;;;;5026301;28;20407;-68
2022/10/14 12:24:54;;;;;;;8.13;6.73;;;17.60;99.90;;;;;;5031773;28;20451;-68
2022/10/14 12:27:21;;;;;;;9.70;5.83;;;17.50;99.90;;;;;;5025017;28;20600;-69
2022/10/14 12:29:49;;;;;;;10.70;6.40;;;17.60;99.90;;;;;;5031850;28;20824;-69
2022/10/14 12:32:25;;;;;;;7.70;5.60;;;17.50;99.90;;;;;;5025334;28;20903;-70
2022/10/14 12:34:53;;;;;;;10.00;7.83;;;17.60;99.90;;;;;;5010906;28;20432;-69
2022/10/14 12:37:31;;;;;;;7.27;6.00;;;17.40;99.90;;;;;;5025822;28;21000;-70
2022/10/14 12:40:04;;;;;;;7.93;5.83;;;17.40;99.90;;;;;;5046170;23;20415;-72
2022/10/14 12:42:33;;;;;;;8.43;6.13;;;17.40;99.90;;;;;;5018861;28;20424;-73
2022/10/14 12:45:02;;;;;;;7.90;7.10;;;17.50;99.90;;;;;;5024930;28;20416;-73
2022/10/14 12:47:32;;;;;;;9.73;5.80;;;17.50;99.90;;;;;;5030631;28;20486;-73
2022/10/14 12:50:03;;;;;;;8.13;6.23;;;17.30;99.90;;;;;;5022753;28;20461;-74
2022/10/14 12:52:34;;;;;;;11.33;6.70;;;17.40;99.90;;;;;;5037191;28;20420;-73
2022/10/14 12:55:07;;;;;;;13.27;7.43;;;17.30;99.90;;;;;;5034347;28;20480;-73
2022/10/14 12:57:35;;;;;;;9.73;5.90;;;17.40;99.90;;;;;;5042038;28;20446;-72
2022/10/14 13:00:22;;;;;;;8.70;6.37;;;17.40;99.90;;;;;;5051211;28;20442;-73
2022/10/14 13:02:58;;;;;;;8.60;7.03;;;17.40;99.90;;;;;;5020108;28;20409;-72